Time;durP1;ratioP1;P1;durP2;ratioP2;P2;SDS_P1;SDS_P2;PMS_P1;PMS_P2;Temp;Humidity;BMP_temperature;BMP_pressure;BME280_temperature;BME280_humidity;BME280_pressure;Samples;Min_cycle;Max_cycle;Signal;HPM_P1;HPM_P2
2022/08/02 00:02:24;;;;;;;9.93;2.20;;;;;;;;;;5071670;28;20040;-64
2022/08/02 00:04:50;;;;;;;5.03;1.65;;;;;;;;;;5070975;28;20032;-65
2022/08/02 00:07:16;;;;;;;8.70;1.90;;;;;;;;;;5070498;28;20047;-65
2022/08/02 00:09:42;;;;;;;9.70;2.00;;;;;;;;;;5071292;28;20059;-65
2022/08/02 00:12:08;;;;;;;6.75;1.70;;;;;;;;;;5071892;28;20032;-65
2022/08/02 00:14:34;;;;;;;6.60;2.00;;;;;;;;;;5070105;28;20028;-64
2022/08/02 00:16:59;;;;;;;7.75;2.00;;;;;;;;;;5071209;28;20125;-65
2022/08/02 00:19:25;;;;;;;4.43;1.42;;;;;;;;;;5070638;28;20020;-63
2022/08/02 00:21:50;;;;;;;7.97;1.70;;;;;;;;;;5066525;28;20409;-64
2022/08/02 00:24:16;;;;;;;7.18;1.98;;;;;;;;;;5051302;28;20374;-64
2022/08/02 00:26:41;;;;;;;6.95;1.90;;;;;;;;;;5050184;28;20033;-65
2022/08/02 00:29:07;;;;;;;8.25;1.80;;;;;;;;;;5049769;28;20024;-64
2022/08/02 00:31:32;;;;;;;7.13;2.15;;;;;;;;;;5049814;28;20025;-64
2022/08/02 00:33:58;;;;;;;6.40;2.00;;;;;;;;;;5049699;28;20031;-64
2022/08/02 00:36:24;;;;;;;5.28;1.70;;;;;;;;;;5050830;28;20474;-64
2022/08/02 00:38:49;;;;;;;6.25;1.75;;;;;;;;;;5050083;28;20111;-63
2022/08/02 00:41:19;;;;;;;8.13;2.20;;;;;;;;;;5051155;28;20078;-64
2022/08/02 00:43:46;;;;;;;4.95;1.98;;;;;;;;;;5050627;28;20084;-64
2022/08/02 00:46:12;;;;;;;5.07;2.03;;;;;;;;;;5051395;28;20517;-63
2022/08/02 00:48:38;;;;;;;10.13;2.50;;;;;;;;;;5050223;28;20043;-63
2022/08/02 00:51:03;;;;;;;5.57;1.90;;;;;;;;;;5050887;28;20478;-65
2022/08/02 00:53:29;;;;;;;7.65;2.03;;;;;;;;;;5049488;28;20359;-64
2022/08/02 00:55:55;;;;;;;6.20;2.00;;;;;;;;;;5050579;28;20163;-65
2022/08/02 00:58:20;;;;;;;4.07;1.65;;;;;;;;;;5050383;28;20106;-65
2022/08/02 01:00:46;;;;;;;8.88;2.25;;;;;;;;;;5049362;28;20033;-63
2022/08/02 01:03:11;;;;;;;9.18;2.42;;;;;;;;;;5050368;28;20036;-63
2022/08/02 01:05:37;;;;;;;5.40;1.88;;;;;;;;;;5049922;28;20419;-65
2022/08/02 01:08:03;;;;;;;4.68;1.85;;;;;;;;;;5049697;28;20016;-64
2022/08/02 01:10:29;;;;;;;7.07;2.00;;;;;;;;;;5049833;28;20104;-63
2022/08/02 01:12:54;;;;;;;6.25;1.98;;;;;;;;;;5048526;28;20130;-65
2022/08/02 01:15:21;;;;;;;6.90;2.05;;;;;;;;;;5068820;28;20048;-64
2022/08/02 01:17:55;;;;;;;6.38;2.17;;;;;;;;;;5069278;28;20020;-64
2022/08/02 01:20:39;;;;;;;6.88;2.28;;;;;;;;;;5069633;28;20059;-64
2022/08/02 01:23:31;;;;;;;4.93;2.05;;;;;;;;;;5052532;28;20080;-63
2022/08/02 01:26:06;;;;;;;5.68;1.80;;;;;;;;;;5048674;28;20067;-64
2022/08/02 01:28:54;;;;;;;8.68;2.25;;;;;;;;;;5049390;28;20704;-65
2022/08/02 01:31:33;;;;;;;5.80;2.13;;;;;;;;;;5042276;28;20041;-63
2022/08/02 01:34:40;;;;;;;6.28;2.10;;;;;;;;;;5048971;28;20024;-64
2022/08/02 01:37:05;;;;;;;9.00;2.08;;;;;;;;;;5044193;28;20047;-64
2022/08/02 01:39:33;;;;;;;6.00;2.10;;;;;;;;;;5049626;28;20037;-63
2022/08/02 01:42:00;;;;;;;7.38;1.98;;;;;;;;;;5048784;28;20537;-63
2022/08/02 01:44:29;;;;;;;9.20;2.42;;;;;;;;;;5048704;28;20033;-63
2022/08/02 01:47:00;;;;;;;6.20;1.88;;;;;;;;;;5069868;28;20021;-63
2022/08/02 01:49:29;;;;;;;4.32;1.83;;;;;;;;;;5068715;28;20029;-63
2022/08/02 01:54:45;;;;;;;7.05;2.33;;;;;;;;;;5069041;28;20039;-63
2022/08/02 01:57:12;;;;;;;9.65;2.83;;;;;;;;;;5069365;28;20020;-63
2022/08/02 01:59:41;;;;;;;10.43;2.58;;;;;;;;;;5069025;28;20024;-64
2022/08/02 02:02:08;;;;;;;6.78;2.10;;;;;;;;;;5069021;28;20028;-64
2022/08/02 02:04:35;;;;;;;6.28;2.22;;;;;;;;;;5069452;28;20384;-63
2022/08/02 02:07:02;;;;;;;4.68;2.20;;;;;;;;;;5068866;28;20103;-64
2022/08/02 02:09:30;;;;;;;8.52;2.20;;;;;;;;;;5068770;28;20461;-62
2022/08/02 02:11:58;;;;;;;9.30;2.45;;;;;;;;;;5057147;28;20036;-64
2022/08/02 02:14:25;;;;;;;6.65;2.30;;;;;;;;;;5048778;28;20500;-64
2022/08/02 02:16:52;;;;;;;5.45;2.13;;;;;;;;;;5048955;28;20029;-63
2022/08/02 02:19:19;;;;;;;7.80;1.90;;;;;;;;;;5048399;28;20053;-64
2022/08/02 02:21:45;;;;;;;7.03;2.15;;;;;;;;;;5048594;28;20060;-64
2022/08/02 02:24:10;;;;;;;5.72;2.10;;;;;;;;;;5049381;28;20055;-63
2022/08/02 02:26:37;;;;;;;5.38;2.10;;;;;;;;;;5048855;28;20470;-63
2022/08/02 02:29:05;;;;;;;6.18;2.42;;;;;;;;;;5068841;28;20028;-66
2022/08/02 02:31:42;;;;;;;4.47;2.15;;;;;;;;;;5058488;28;20044;-64
2022/08/02 02:34:15;;;;;;;7.55;2.28;;;;;;;;;;5049077;28;20057;-64
2022/08/02 02:36:47;;;;;;;4.03;2.08;;;;;;;;;;5048065;28;20462;-64
2022/08/02 02:39:14;;;;;;;4.80;2.10;;;;;;;;;;5048661;28;20033;-62
2022/08/02 02:41:42;;;;;;;5.25;1.73;;;;;;;;;;5048119;28;20021;-65
2022/08/02 02:44:12;;;;;;;5.38;2.13;;;;;;;;;;5048698;28;20676;-63
2022/08/02 02:46:39;;;;;;;4.75;2.20;;;;;;;;;;5048645;28;20025;-62
2022/08/02 02:49:08;;;;;;;8.13;2.15;;;;;;;;;;5048863;28;20025;-64
2022/08/02 02:51:34;;;;;;;5.97;2.17;;;;;;;;;;5048877;28;20068;-64
2022/08/02 02:54:00;;;;;;;6.13;2.20;;;;;;;;;;5050203;28;20495;-64
2022/08/02 02:56:27;;;;;;;8.18;2.60;;;;;;;;;;5052787;28;20166;-62
2022/08/02 02:58:53;;;;;;;7.55;2.50;;;;;;;;;;5051459;28;20033;-63
2022/08/02 03:01:26;;;;;;;16.48;5.60;;;;;;;;;;5053015;28;20548;-63
2022/08/02 03:03:53;;;;;;;12.77;6.28;;;;;;;;;;5052759;28;20492;-64
2022/08/02 03:06:19;;;;;;;12.70;3.65;;;;;;;;;;5053042;28;20025;-64
2022/08/02 03:08:45;;;;;;;8.15;2.45;;;;;;;;;;5052158;28;20405;-64
2022/08/02 03:11:12;;;;;;;10.82;3.17;;;;;;;;;;5051539;28;20071;-63
2022/08/02 03:13:38;;;;;;;6.20;2.47;;;;;;;;;;5070371;28;20017;-63
2022/08/02 03:16:04;;;;;;;9.02;2.78;;;;;;;;;;5072490;28;20433;-63
2022/08/02 03:18:34;;;;;;;7.75;3.00;;;;;;;;;;5072495;28;20024;-64
2022/08/02 03:21:09;;;;;;;8.48;2.75;;;;;;;;;;5071379;28;20099;-64
2022/08/02 03:23:35;;;;;;;12.00;3.15;;;;;;;;;;5051281;28;20485;-63
2022/08/02 03:26:01;;;;;;;8.90;2.90;;;;;;;;;;5051759;28;20021;-63
2022/08/02 03:28:26;;;;;;;9.70;2.60;;;;;;;;;;5051799;28;20036;-64
2022/08/02 03:30:52;;;;;;;7.65;2.53;;;;;;;;;;5051799;28;20032;-62
2022/08/02 03:33:18;;;;;;;9.98;2.80;;;;;;;;;;5051423;28;20096;-64
2022/08/02 03:35:46;;;;;;;9.48;3.38;;;;;;;;;;5051419;28;20028;-65
2022/08/02 03:38:14;;;;;;;7.75;2.58;;;;;;;;;;5052289;28;20490;-63
2022/08/02 03:40:42;;;;;;;13.05;3.22;;;;;;;;;;5051593;28;20033;-64
2022/08/02 03:43:10;;;;;;;13.15;3.00;;;;;;;;;;5051710;28;20098;-63
2022/08/02 03:45:38;;;;;;;6.55;2.70;;;;;;;;;;5051145;28;20125;-62
2022/08/02 03:48:05;;;;;;;9.48;2.60;;;;;;;;;;5052300;28;20025;-64
2022/08/02 03:50:32;;;;;;;5.60;2.92;;;;;;;;;;5051378;28;20028;-63
2022/08/02 03:52:58;;;;;;;7.82;2.60;;;;;;;;;;5050577;28;20111;-63
2022/08/02 03:55:24;;;;;;;9.50;2.70;;;;;;;;;;5050746;28;20470;-62
2022/08/02 03:57:50;;;;;;;12.02;3.05;;;;;;;;;;5050636;28;20024;-64
2022/08/02 04:00:20;;;;;;;12.18;2.63;;;;;;;;;;5051441;28;20094;-63
2022/08/02 04:02:46;;;;;;;;;;;;;;;;;;5051161;28;20061;-64
2022/08/02 04:05:12;;;;;;;6.20;2.65;;;;;;;;;;5051742;28;19955;-64
2022/08/02 04:07:37;;;;;;;7.82;2.85;;;;;;;;;;5050769;28;20100;-63
2022/08/02 04:10:04;;;;;;;7.80;3.30;;;;;;;;;;5050920;28;20029;-63
2022/08/02 04:12:30;;;;;;;10.40;3.72;;;;;;;;;;5050666;28;20493;-64
2022/08/02 04:14:56;;;;;;;10.15;2.90;;;;;;;;;;5051023;28;20079;-63
2022/08/02 04:17:22;;;;;;;11.77;2.90;;;;;;;;;;5051202;28;20386;-63
2022/08/02 04:19:52;;;;;;;9.25;3.00;;;;;;;;;;5051262;28;20505;-62
2022/08/02 04:22:30;;;;;;;6.35;2.65;;;;;;;;;;5050805;28;20049;-64
2022/08/02 04:24:58;;;;;;;7.35;2.72;;;;;;;;;;5051035;28;20045;-63
2022/08/02 04:27:25;;;;;;;6.97;2.60;;;;;;;;;;5051056;28;20033;-63
2022/08/02 04:29:52;;;;;;;10.00;2.95;;;;;;;;;;5050529;28;20029;-63
2022/08/02 04:32:19;;;;;;;11.75;3.10;;;;;;;;;;5050257;28;20482;-63
2022/08/02 04:34:45;;;;;;;9.05;2.83;;;;;;;;;;5050543;28;20033;-63
2022/08/02 04:37:11;;;;;;;10.57;2.83;;;;;;;;;;5050724;28;20104;-63
2022/08/02 04:39:39;;;;;;;9.10;3.10;;;;;;;;;;5049998;28;20474;-64
2022/08/02 04:42:05;;;;;;;7.05;2.50;;;;;;;;;;5050025;28;20025;-64
2022/08/02 04:44:30;;;;;;;7.97;3.03;;;;;;;;;;5049374;28;20104;-62
2022/08/02 04:46:59;;;;;;;7.28;2.63;;;;;;;;;;5050613;28;20045;-63
2022/08/02 04:49:24;;;;;;;5.75;2.55;;;;;;;;;;5050165;28;20070;-63
2022/08/02 04:51:50;;;;;;;8.30;2.70;;;;;;;;;;5049944;28;20029;-63
2022/08/02 04:54:15;;;;;;;6.18;2.30;;;;;;;;;;5049863;28;20436;-64
2022/08/02 04:56:41;;;;;;;6.82;2.38;;;;;;;;;;5049439;28;20112;-64
2022/08/02 04:59:07;;;;;;;8.95;2.42;;;;;;;;;;5050000;28;20040;-64
2022/08/02 05:01:34;;;;;;;5.15;2.30;;;;;;;;;;5049728;28;20490;-64
2022/08/02 05:04:00;;;;;;;7.15;2.80;;;;;;;;;;5050390;28;20112;-63
2022/08/02 05:06:25;;;;;;;9.07;2.67;;;;;;;;;;5050112;28;20120;-63
2022/08/02 05:08:51;;;;;;;10.25;2.65;;;;;;;;;;5050046;28;20104;-63
2022/08/02 05:11:17;;;;;;;5.95;2.58;;;;;;;;;;5049263;28;20078;-63
2022/08/02 05:13:43;;;;;;;7.25;2.38;;;;;;;;;;5049190;28;20033;-65
2022/08/02 05:16:09;;;;;;;9.85;2.63;;;;;;;;;;5049666;28;20040;-64
2022/08/02 05:18:34;;;;;;;8.52;2.67;;;;;;;;;;5049542;28;20474;-64
2022/08/02 05:21:00;;;;;;;6.93;2.75;;;;;;;;;;5049050;28;20025;-64
2022/08/02 05:23:26;;;;;;;6.20;2.58;;;;;;;;;;5048345;28;20037;-63
2022/08/02 05:25:51;;;;;;;7.68;2.83;;;;;;;;;;5049144;28;20029;-62
2022/08/02 05:28:17;;;;;;;14.82;2.92;;;;;;;;;;5048918;28;20073;-64
2022/08/02 05:30:42;;;;;;;9.48;2.45;;;;;;;;;;5049111;28;20033;-63
2022/08/02 05:33:08;;;;;;;9.05;2.70;;;;;;;;;;5049722;28;20109;-66
2022/08/02 05:35:34;;;;;;;8.57;2.60;;;;;;;;;;5049757;28;20101;-62
2022/08/02 05:37:59;;;;;;;10.15;2.78;;;;;;;;;;5049011;28;20029;-63
2022/08/02 05:40:25;;;;;;;11.48;2.35;;;;;;;;;;5047889;28;20600;-62
2022/08/02 05:42:51;;;;;;;9.45;2.95;;;;;;;;;;5049298;28;20029;-64
2022/08/02 05:45:16;;;;;;;7.78;2.78;;;;;;;;;;5048842;28;20502;-64
2022/08/02 05:47:42;;;;;;;8.45;2.38;;;;;;;;;;5049653;28;20615;-62
2022/08/02 05:50:08;;;;;;;10.60;2.40;;;;;;;;;;5050129;28;20469;-64
2022/08/02 05:52:55;;;;;;;11.50;2.50;;;;;;;;;;5058154;28;20439;-63
2022/08/02 05:55:27;;;;;;;9.60;2.20;;;;;;;;;;5067608;28;20488;-63
2022/08/02 05:58:01;;;;;;;11.75;2.53;;;;;;;;;;5068409;28;20032;-62
2022/08/02 06:00:30;;;;;;;11.27;2.70;;;;;;;;;;5069128;28;20038;-63
2022/08/02 06:03:15;;;;;;;7.97;2.70;;;;;;;;;;5069373;28;20029;-64
2022/08/02 06:06:02;;;;;;;10.43;2.47;;;;;;;;;;5062128;28;20111;-64
2022/08/02 06:08:38;;;;;;;19.58;2.67;;;;;;;;;;5025863;28;20487;-63
2022/08/02 06:11:06;;;;;;;9.60;2.00;;;;;;;;;;5027339;28;20091;-64
2022/08/02 06:13:32;;;;;;;9.07;2.65;;;;;;;;;;5025245;28;20231;-64
2022/08/02 06:15:58;;;;;;;8.80;2.40;;;;;;;;;;5026255;28;20041;-63
2022/08/02 06:18:27;;;;;;;13.05;2.60;;;;;;;;;;5026120;28;20083;-63
2022/08/02 06:20:59;;;;;;;11.60;3.22;;;;;;;;;;5024699;28;20034;-63
2022/08/02 06:23:26;;;;;;;8.68;2.00;;;;;;;;;;5025968;28;20486;-62
2022/08/02 06:25:53;;;;;;;9.02;2.53;;;;;;;;;;5026832;28;20038;-63
2022/08/02 06:28:19;;;;;;;13.75;2.60;;;;;;;;;;5028762;28;20026;-64
2022/08/02 06:30:45;;;;;;;14.93;2.33;;;;;;;;;;5030210;28;20033;-64
2022/08/02 06:33:12;;;;;;;14.13;2.40;;;;;;;;;;5030141;28;20164;-63
2022/08/02 06:35:59;;;;;;;15.15;2.25;;;;;;;;;;5030426;28;20041;-63
2022/08/02 06:38:27;;;;;;;10.43;1.70;;;;;;;;;;5029489;28;20044;-63
2022/08/02 06:40:55;;;;;;;10.52;2.40;;;;;;;;;;5030858;28;20549;-62
2022/08/02 06:43:39;;;;;;;6.57;2.28;;;;;;;;;;5030383;28;20025;-64
2022/08/02 06:46:04;;;;;;;8.70;1.88;;;;;;;;;;5059066;28;20037;-64
2022/08/02 06:48:34;;;;;;;5.07;1.50;;;;;;;;;;5072218;28;20039;-63
2022/08/02 06:51:01;;;;;;;5.47;1.70;;;;;;;;;;5072384;28;20107;-64
2022/08/02 06:53:26;;;;;;;13.27;2.03;;;;;;;;;;5071001;28;20257;-63
2022/08/02 06:55:52;;;;;;;7.82;1.75;;;;;;;;;;5072616;28;20381;-63
2022/08/02 06:58:18;;;;;;;5.72;1.70;;;;;;;;;;5072177;28;20359;-63
2022/08/02 07:00:43;;;;;;;10.10;2.15;;;;;;;;;;5072531;28;20043;-64
2022/08/02 07:03:09;;;;;;;9.82;2.00;;;;;;;;;;5072062;28;20508;-63
2022/08/02 07:05:35;;;;;;;9.80;1.90;;;;;;;;;;5072466;28;20036;-64
2022/08/02 07:08:01;;;;;;;11.02;2.42;;;;;;;;;;5071118;28;20048;-64
2022/08/02 07:10:27;;;;;;;8.18;1.65;;;;;;;;;;5055738;28;20123;-63
2022/08/02 07:12:52;;;;;;;13.30;1.73;;;;;;;;;;5051596;28;20567;-63
2022/08/02 07:15:18;;;;;;;14.38;1.75;;;;;;;;;;5051911;28;20057;-64
2022/08/02 07:17:44;;;;;;;7.57;1.67;;;;;;;;;;5054296;28;21256;-63
2022/08/02 07:20:10;;;;;;;6.38;1.73;;;;;;;;;;5071746;28;20141;-64
2022/08/02 07:22:36;;;;;;;9.45;1.77;;;;;;;;;;5057647;28;20037;-63
2022/08/02 07:25:05;;;;;;;10.20;1.80;;;;;;;;;;5052059;28;20108;-64
2022/08/02 07:27:31;;;;;;;7.10;1.75;;;;;;;;;;5051368;28;20036;-63
2022/08/02 07:29:57;;;;;;;11.60;2.08;;;;;;;;;;5050553;28;20021;-63
2022/08/02 07:32:26;;;;;;;7.50;1.90;;;;;;;;;;5052035;28;20111;-63
2022/08/02 07:34:52;;;;;;;10.27;1.85;;;;;;;;;;5046069;28;20037;-64
2022/08/02 07:37:17;;;;;;;13.80;1.92;;;;;;;;;;5040954;28;20048;-62
2022/08/02 07:39:43;;;;;;;6.45;1.58;;;;;;;;;;5069759;28;20448;-64
2022/08/02 07:42:08;;;;;;;6.90;1.50;;;;;;;;;;5070650;28;20497;-64
2022/08/02 07:44:34;;;;;;;5.72;1.73;;;;;;;;;;5072291;28;20031;-63
2022/08/02 07:47:00;;;;;;;9.60;1.70;;;;;;;;;;5070862;28;20041;-64
2022/08/02 07:49:27;;;;;;;8.48;1.80;;;;;;;;;;5070449;28;20111;-63
2022/08/02 07:51:53;;;;;;;13.00;2.50;;;;;;;;;;5071467;28;20024;-62
2022/08/02 07:54:19;;;;;;;13.02;1.80;;;;;;;;;;5070721;28;20032;-65
2022/08/02 07:56:45;;;;;;;9.40;1.75;;;;;;;;;;5052345;28;20041;-64
2022/08/02 07:59:10;;;;;;;12.20;2.25;;;;;;;;;;5051806;28;20079;-62
2022/08/02 08:01:36;;;;;;;8.13;1.70;;;;;;;;;;5050825;28;20434;-62
2022/08/02 08:04:03;;;;;;;11.60;2.90;;;;;;;;;;5065050;28;20443;-62
2022/08/02 08:06:29;;;;;;;11.30;1.70;;;;;;;;;;5074235;28;20432;-63
2022/08/02 08:08:56;;;;;;;6.38;2.85;;;;;;;;;;5073988;28;20024;-63
2022/08/02 08:11:21;;;;;;;7.22;1.58;;;;;;;;;;5074516;28;20035;-62
2022/08/02 08:13:47;;;;;;;4.93;1.58;;;;;;;;;;5074370;28;20036;-62
2022/08/02 08:16:12;;;;;;;5.25;1.60;;;;;;;;;;5074182;28;20032;-62
2022/08/02 08:18:38;;;;;;;7.57;1.60;;;;;;;;;;5074500;28;20074;-62
2022/08/02 08:21:03;;;;;;;9.68;1.90;;;;;;;;;;5073645;28;20476;-62
2022/08/02 08:23:29;;;;;;;6.43;1.63;;;;;;;;;;5094762;28;20032;-62
2022/08/02 08:25:54;;;;;;;8.73;1.80;;;;;;;;;;5094115;28;20020;-62
2022/08/02 08:28:20;;;;;;;7.28;1.67;;;;;;;;;;5094255;28;20438;-62
2022/08/02 08:30:49;;;;;;;11.27;1.80;;;;;;;;;;5094183;28;20073;-63
2022/08/02 08:33:15;;;;;;;6.70;1.73;;;;;;;;;;5094369;28;20081;-63
2022/08/02 08:35:40;;;;;;;10.05;1.60;;;;;;;;;;5093886;28;20032;-62
2022/08/02 08:38:07;;;;;;;8.18;1.88;;;;;;;;;;5094090;28;20387;-62
2022/08/02 08:40:33;;;;;;;7.32;1.52;;;;;;;;;;5094341;28;20024;-62
2022/08/02 08:42:58;;;;;;;7.57;1.80;;;;;;;;;;5092738;28;20027;-63
2022/08/02 08:45:24;;;;;;;5.25;1.60;;;;;;;;;;5094265;28;20027;-62
2022/08/02 08:48:00;;;;;;;5.57;1.58;;;;;;;;;;5093747;28;20396;-62
2022/08/02 08:50:29;;;;;;;7.13;1.48;;;;;;;;;;5093097;28;20495;-63
2022/08/02 08:53:03;;;;;;;7.82;1.60;;;;;;;;;;5092956;28;20028;-62
2022/08/02 08:55:30;;;;;;;4.30;1.40;;;;;;;;;;5093757;28;20445;-62
2022/08/02 08:57:59;;;;;;;6.78;1.58;;;;;;;;;;5093835;28;20020;-63
2022/08/02 09:00:24;;;;;;;4.63;1.75;;;;;;;;;;5093516;28;20080;-63
2022/08/02 09:02:50;;;;;;;8.02;1.90;;;;;;;;;;5092250;28;20040;-63
2022/08/02 09:05:17;;;;;;;5.10;1.75;;;;;;;;;;5093416;28;20028;-62
2022/08/02 09:07:46;;;;;;;5.57;1.75;;;;;;;;;;5093262;28;20488;-63
2022/08/02 09:10:31;;;;;;;4.57;1.42;;;;;;;;;;5093447;28;20508;-62
2022/08/02 09:13:12;;;;;;;5.82;1.77;;;;;;;;;;5093560;28;20031;-62
2022/08/02 09:15:39;;;;;;;4.85;1.52;;;;;;;;;;5093498;28;20024;-64
2022/08/02 09:18:06;;;;;;;4.03;1.70;;;;;;;;;;5093119;28;20020;-62
2022/08/02 09:20:58;;;;;;;11.40;1.70;;;;;;;;;;5093461;28;20028;-62
2022/08/02 09:23:25;;;;;;;6.10;1.70;;;;;;;;;;5093138;28;20028;-62
2022/08/02 09:25:56;;;;;;;6.63;1.60;;;;;;;;;;5093641;28;20397;-62
2022/08/02 09:28:25;;;;;;;7.38;1.40;;;;;;;;;;5091893;28;20059;-62
2022/08/02 09:30:50;;;;;;;5.32;1.50;;;;;;;;;;5092938;28;20028;-62
2022/08/02 09:33:26;;;;;;;8.27;1.65;;;;;;;;;;5092871;28;20031;-61
2022/08/02 09:36:07;;;;;;;11.70;1.75;;;;;;;;;;5092922;28;20065;-62
2022/08/02 09:38:33;;;;;;;5.82;1.63;;;;;;;;;;5093170;28;20469;-62
2022/08/02 09:40:59;;;;;;;7.30;1.70;;;;;;;;;;5087479;28;20028;-62
2022/08/02 09:43:37;;;;;;;9.30;1.65;;;;;;;;;;5057241;28;20070;-61
2022/08/02 09:46:14;;;;;;;10.40;1.63;;;;;;;;;;5072745;28;20048;-62
2022/08/02 09:48:47;;;;;;;7.82;1.80;;;;;;;;;;5072466;28;20020;-61
2022/08/02 09:51:16;;;;;;;6.93;1.55;;;;;;;;;;5072677;28;20028;-62
2022/08/02 09:53:42;;;;;;;4.75;1.40;;;;;;;;;;5072459;28;20025;-62
2022/08/02 09:56:08;;;;;;;7.55;1.55;;;;;;;;;;5072278;28;20028;-62
2022/08/02 09:58:38;;;;;;;6.78;1.80;;;;;;;;;;5072546;28;20151;-62
2022/08/02 10:01:04;;;;;;;6.68;1.63;;;;;;;;;;5072094;28;20043;-62
2022/08/02 10:03:30;;;;;;;4.88;1.40;;;;;;;;;;5071902;28;20039;-62
2022/08/02 10:06:00;;;;;;;4.22;1.77;;;;;;;;;;5072581;28;20137;-62
2022/08/02 10:08:27;;;;;;;9.85;1.90;;;;;;;;;;5072770;28;20111;-62
2022/08/02 10:10:59;;;;;;;6.43;1.55;;;;;;;;;;5072285;28;20029;-62
2022/08/02 10:13:34;;;;;;;7.85;2.08;;;;;;;;;;5072338;28;20028;-62
2022/08/02 10:16:01;;;;;;;4.88;1.30;;;;;;;;;;5072155;28;20016;-62
2022/08/02 10:18:27;;;;;;;6.50;1.48;;;;;;;;;;5072403;28;20493;-62
2022/08/02 10:20:55;;;;;;;6.07;1.40;;;;;;;;;;5072083;28;20024;-62
2022/08/02 10:23:25;;;;;;;12.05;1.90;;;;;;;;;;5088443;28;20499;-62
2022/08/02 10:25:53;;;;;;;3.28;1.27;;;;;;;;;;5052191;28;20075;-62
2022/08/02 10:28:24;;;;;;;5.95;1.85;;;;;;;;;;5052248;28;20447;-62
2022/08/02 10:30:52;;;;;;;7.47;1.45;;;;;;;;;;5052312;28;20390;-62
2022/08/02 10:33:18;;;;;;;8.07;1.20;;;;;;;;;;5051754;28;20043;-62
2022/08/02 10:35:46;;;;;;;6.63;1.77;;;;;;;;;;5052075;28;20120;-61
2022/08/02 10:38:14;;;;;;;5.38;1.60;;;;;;;;;;5052212;28;20435;-62
2022/08/02 10:40:49;;;;;;;4.85;1.50;;;;;;;;;;5052057;28;20025;-62
2022/08/02 10:43:41;;;;;;;4.47;1.35;;;;;;;;;;5052079;28;20049;-62
2022/08/02 10:46:34;;;;;;;4.10;1.35;;;;;;;;;;5051891;28;20083;-62
2022/08/02 10:49:11;;;;;;;5.00;1.35;;;;;;;;;;5051886;28;20025;-61
2022/08/02 10:51:59;;;;;;;5.30;1.50;;;;;;;;;;5051553;28;20492;-62
2022/08/02 10:54:38;;;;;;;6.43;1.50;;;;;;;;;;5052168;28;20052;-62
2022/08/02 10:57:15;;;;;;;5.38;1.58;;;;;;;;;;5051925;28;20056;-61
2022/08/02 10:59:41;;;;;;;4.78;1.45;;;;;;;;;;5051648;28;20057;-62
2022/08/02 11:02:07;;;;;;;4.45;1.35;;;;;;;;;;5051805;28;20053;-62
2022/08/02 11:04:35;;;;;;;8.85;1.80;;;;;;;;;;5051850;28;20025;-62
2022/08/02 11:07:18;;;;;;;9.30;1.73;;;;;;;;;;5051897;28;20033;-62
2022/08/02 11:09:48;;;;;;;7.18;1.55;;;;;;;;;;5051807;28;20017;-62
2022/08/02 11:12:15;;;;;;;6.95;1.48;;;;;;;;;;5051730;28;20029;-62
2022/08/02 11:14:42;;;;;;;3.58;1.20;;;;;;;;;;5052464;28;20025;-62
2022/08/02 11:17:15;;;;;;;5.80;1.55;;;;;;;;;;5055470;28;20033;-62
2022/08/02 11:20:11;;;;;;;4.85;1.33;;;;;;;;;;5055736;28;20100;-62
2022/08/02 11:22:41;;;;;;;6.47;1.63;;;;;;;;;;5055191;28;20060;-62
2022/08/02 11:25:27;;;;;;;3.70;1.40;;;;;;;;;;5055310;28;20036;-63
2022/08/02 11:27:58;;;;;;;6.32;1.38;;;;;;;;;;5049979;28;20052;-64
2022/08/02 11:30:25;;;;;;;5.95;1.48;;;;;;;;;;5055076;28;20052;-64
2022/08/02 11:32:55;;;;;;;4.35;1.40;;;;;;;;;;5055061;28;20036;-64
2022/08/02 11:35:21;;;;;;;11.68;1.58;;;;;;;;;;5055144;28;20029;-64
2022/08/02 11:37:47;;;;;;;4.28;1.77;;;;;;;;;;5055041;28;20028;-63
2022/08/02 11:40:15;;;;;;;5.30;1.38;;;;;;;;;;5054915;28;20079;-63
2022/08/02 11:42:43;;;;;;;5.80;1.58;;;;;;;;;;5054604;28;20108;-63
2022/08/02 11:45:11;;;;;;;4.05;1.38;;;;;;;;;;5054823;28;20031;-64
2022/08/02 11:47:52;;;;;;;3.83;1.40;;;;;;;;;;5054630;28;20506;-64
2022/08/02 11:50:23;;;;;;;4.10;1.40;;;;;;;;;;5054792;28;20055;-65
2022/08/02 11:52:49;;;;;;;6.80;1.50;;;;;;;;;;5054716;28;20108;-63
2022/08/02 11:55:15;;;;;;;5.30;1.10;;;;;;;;;;5053270;28;20115;-62
2022/08/02 11:57:40;;;;;;;9.00;1.38;;;;;;;;;;5054437;28;20057;-62
2022/08/02 12:00:24;;;;;;;2.92;1.27;;;;;;;;;;5055038;28;20021;-63
2022/08/02 12:02:51;;;;;;;4.03;1.27;;;;;;;;;;5061399;28;20036;-64
2022/08/02 12:05:22;;;;;;;5.82;1.63;;;;;;;;;;5074522;28;20029;-64
2022/08/02 12:07:50;;;;;;;4.05;1.50;;;;;;;;;;5074858;28;20040;-64
2022/08/02 12:10:21;;;;;;;5.10;1.20;;;;;;;;;;5074516;28;20056;-63
2022/08/02 12:12:58;;;;;;;4.47;1.30;;;;;;;;;;5073929;28;20024;-63
2022/08/02 12:15:40;;;;;;;6.53;1.48;;;;;;;;;;5074241;28;20047;-63
2022/08/02 12:20:55;;;;;;;4.18;1.48;;;;;;;;;;5074732;28;20423;-62
2022/08/02 12:23:20;;;;;;;3.25;1.20;;;;;;;;;;5093326;28;20031;-62
2022/08/02 12:26:10;;;;;;;5.70;1.48;;;;;;;;;;5075011;28;20048;-62
2022/08/02 12:28:38;;;;;;;5.90;1.67;;;;;;;;;;5074243;28;20027;-62
2022/08/02 12:31:05;;;;;;;7.35;1.42;;;;;;;;;;5074053;28;20040;-62
2022/08/02 12:34:10;;;;;;;6.20;1.20;;;;;;;;;;5073943;28;20495;-62
2022/08/02 12:36:35;;;;;;;8.20;1.98;;;;;;;;;;5031638;28;20045;-62
2022/08/02 12:39:01;;;;;;;6.57;1.50;;;;;;;;;;5031625;28;20037;-63
2022/08/02 12:41:28;;;;;;;5.30;1.35;;;;;;;;;;5031379;28;20033;-63
2022/08/02 12:43:55;;;;;;;3.97;1.42;;;;;;;;;;5015283;28;20021;-62
2022/08/02 12:46:23;;;;;;;3.67;1.20;;;;;;;;;;5031678;28;20045;-62
2022/08/02 12:48:49;;;;;;;6.25;1.70;;;;;;;;;;5031438;28;20458;-64
2022/08/02 12:51:20;;;;;;;3.65;1.40;;;;;;;;;;5031637;28;20119;-63
2022/08/02 12:53:46;;;;;;;4.32;1.52;;;;;;;;;;5031255;28;20529;-64
2022/08/02 12:56:12;;;;;;;4.80;1.40;;;;;;;;;;5031265;28;20544;-62
2022/08/02 12:58:48;;;;;;;5.45;1.30;;;;;;;;;;5031146;28;20112;-62
2022/08/02 13:01:20;;;;;;;2.40;1.20;;;;;;;;;;5031515;28;20112;-62
2022/08/02 13:03:46;;;;;;;5.25;1.40;;;;;;;;;;5031245;28;20470;-64
2022/08/02 13:06:11;;;;;;;6.05;1.48;;;;;;;;;;5031400;28;20087;-63
2022/08/02 13:08:38;;;;;;;5.35;1.35;;;;;;;;;;5031102;28;20433;-64
2022/08/02 13:11:03;;;;;;;2.72;1.20;;;;;;;;;;5034543;28;20037;-62
2022/08/02 13:13:29;;;;;;;2.95;1.17;;;;;;;;;;5073221;28;20039;-62
2022/08/02 13:15:54;;;;;;;5.57;1.27;;;;;;;;;;5073090;28;20469;-62
2022/08/02 13:18:21;;;;;;;4.57;1.35;;;;;;;;;;5073159;28;20032;-62
2022/08/02 13:20:46;;;;;;;4.05;1.20;;;;;;;;;;5073119;28;20013;-63
2022/08/02 13:23:12;;;;;;;4.35;1.30;;;;;;;;;;5090912;28;20460;-62
2022/08/02 13:25:40;;;;;;;4.10;1.25;;;;;;;;;;5092930;28;20040;-62
2022/08/02 13:28:05;;;;;;;3.70;1.50;;;;;;;;;;5093223;28;20024;-64
2022/08/02 13:30:31;;;;;;;3.90;1.38;;;;;;;;;;5093184;28;20069;-63
2022/08/02 13:32:56;;;;;;;3.55;1.48;;;;;;;;;;5093039;28;20027;-63
2022/08/02 13:35:22;;;;;;;5.10;1.48;;;;;;;;;;5093196;28;20503;-64
2022/08/02 13:37:47;;;;;;;4.80;1.20;;;;;;;;;;5092470;28;20024;-63
2022/08/02 13:40:13;;;;;;;3.80;1.27;;;;;;;;;;5092775;28;20518;-64
2022/08/02 13:42:39;;;;;;;2.88;1.02;;;;;;;;;;5077839;28;20036;-63
2022/08/02 13:45:05;;;;;;;4.60;1.10;;;;;;;;;;5062584;28;20021;-63
2022/08/02 13:47:30;;;;;;;5.40;1.15;;;;;;;;;;5060891;28;20042;-62
2022/08/02 13:49:56;;;;;;;4.35;1.50;;;;;;;;;;5060913;28;20077;-63
2022/08/02 13:52:22;;;;;;;5.50;1.20;;;;;;;;;;5066447;28;20020;-64
2022/08/02 13:54:48;;;;;;;4.15;1.50;;;;;;;;;;5062629;28;20363;-65
2022/08/02 13:57:14;;;;;;;5.30;1.23;;;;;;;;;;5071759;28;20028;-64
2022/08/02 13:59:40;;;;;;;8.30;1.40;;;;;;;;;;5060631;28;20032;-64
2022/08/02 14:02:06;;;;;;;8.73;1.20;;;;;;;;;;5071288;28;20382;-65
2022/08/02 14:04:31;;;;;;;3.90;1.13;;;;;;;;;;5072405;28;20471;-64
2022/08/02 14:06:57;;;;;;;3.35;1.20;;;;;;;;;;5069020;28;20390;-65
2022/08/02 14:09:23;;;;;;;5.20;1.10;;;;;;;;;;5062176;28;20048;-64
2022/08/02 14:11:49;;;;;;;9.43;1.13;;;;;;;;;;5062487;28;20039;-64
2022/08/02 14:14:14;;;;;;;4.53;1.17;;;;;;;;;;5060528;28;20029;-64
2022/08/02 14:16:40;;;;;;;4.85;1.30;;;;;;;;;;5063996;28;20150;-63
2022/08/02 14:19:06;;;;;;;5.60;1.50;;;;;;;;;;5061540;28;20108;-63
2022/08/02 14:21:31;;;;;;;5.43;1.40;;;;;;;;;;5065197;28;20038;-65
2022/08/02 14:23:57;;;;;;;5.10;1.30;;;;;;;;;;5060848;28;20417;-64
2022/08/02 14:26:22;;;;;;;3.65;1.25;;;;;;;;;;5062681;28;20020;-64
2022/08/02 14:28:48;;;;;;;2.83;1.30;;;;;;;;;;5060899;28;20025;-63
2022/08/02 14:31:13;;;;;;;3.85;1.08;;;;;;;;;;5061665;28;20496;-63
2022/08/02 14:33:39;;;;;;;4.75;1.13;;;;;;;;;;5065189;28;20470;-62
2022/08/02 14:36:05;;;;;;;5.78;1.20;;;;;;;;;;5071963;28;20480;-63
2022/08/02 14:38:31;;;;;;;3.53;1.30;;;;;;;;;;5071788;28;20044;-64
2022/08/02 14:40:57;;;;;;;3.58;1.27;;;;;;;;;;5072504;28;20021;-63
2022/08/02 14:46:07;;;;;;;4.78;1.40;;;;;;;;;;5072378;28;20167;-63
2022/08/02 14:48:33;;;;;;;4.47;1.10;;;;;;;;;;5072060;28;20484;-63
2022/08/02 14:50:58;;;;;;;4.60;1.42;;;;;;;;;;5083343;28;20431;-64
2022/08/02 14:53:24;;;;;;;4.78;1.60;;;;;;;;;;5096078;28;20035;-63
2022/08/02 14:55:49;;;;;;;3.33;1.00;;;;;;;;;;5096381;28;20396;-65
2022/08/02 14:58:15;;;;;;;5.35;1.30;;;;;;;;;;5096159;28;20058;-64